sensor_id;sensor_type;location;lat;lon;timestamp;P1;durP1;ratioP1;P2;durP2;ratioP2
48743;SDS011;34538;48.836;9.174;2024-03-08T00:02:17;21.98;;;11.75;;
48743;SDS011;34538;48.836;9.174;2024-03-08T00:04:44;24.08;;;12.25;;
48743;SDS011;34538;48.836;9.174;2024-03-08T00:07:11;24.42;;;12.63;;
48743;SDS011;34538;48.836;9.174;2024-03-08T00:09:38;21.77;;;12.15;;
48743;SDS011;34538;48.836;9.174;2024-03-08T00:12:05;22.27;;;11.80;;
48743;SDS011;34538;48.836;9.174;2024-03-08T00:14:34;23.60;;;11.77;;
48743;SDS011;34538;48.836;9.174;2024-03-08T00:17:02;25.60;;;12.82;;
48743;SDS011;34538;48.836;9.174;2024-03-08T00:19:29;22.65;;;12.35;;
48743;SDS011;34538;48.836;9.174;2024-03-08T00:21:56;23.20;;;12.30;;
48743;SDS011;34538;48.836;9.174;2024-03-08T00:24:23;25.88;;;12.40;;
48743;SDS011;34538;48.836;9.174;2024-03-08T00:26:50;24.30;;;12.80;;
48743;SDS011;34538;48.836;9.174;2024-03-08T00:29:18;20.65;;;12.02;;
48743;SDS011;34538;48.836;9.174;2024-03-08T00:31:47;24.63;;;12.82;;
48743;SDS011;34538;48.836;9.174;2024-03-08T00:34:14;21.85;;;12.27;;
48743;SDS011;34538;48.836;9.174;2024-03-08T00:36:41;21.35;;;12.63;;
48743;SDS011;34538;48.836;9.174;2024-03-08T00:39:07;25.00;;;12.40;;
48743;SDS011;34538;48.836;9.174;2024-03-08T00:41:34;22.27;;;11.90;;
48743;SDS011;34538;48.836;9.174;2024-03-08T00:44:01;22.17;;;12.25;;
48743;SDS011;34538;48.836;9.174;2024-03-08T00:46:29;23.02;;;12.15;;
48743;SDS011;34538;48.836;9.174;2024-03-08T00:48:58;24.05;;;12.18;;
48743;SDS011;34538;48.836;9.174;2024-03-08T00:51:26;21.17;;;11.93;;
48743;SDS011;34538;48.836;9.174;2024-03-08T00:53:53;23.13;;;12.20;;
48743;SDS011;34538;48.836;9.174;2024-03-08T00:56:20;22.55;;;12.93;;
48743;SDS011;34538;48.836;9.174;2024-03-08T00:58:47;27.10;;;13.25;;
48743;SDS011;34538;48.836;9.174;2024-03-08T01:01:14;23.05;;;12.27;;
48743;SDS011;34538;48.836;9.174;2024-03-08T01:03:42;23.95;;;12.77;;
48743;SDS011;34538;48.836;9.174;2024-03-08T01:06:10;23.10;;;12.73;;
48743;SDS011;34538;48.836;9.174;2024-03-08T01:08:37;24.80;;;12.52;;
48743;SDS011;34538;48.836;9.174;2024-03-08T01:11:07;24.08;;;12.95;;
48743;SDS011;34538;48.836;9.174;2024-03-08T01:13:34;23.00;;;12.63;;
48743;SDS011;34538;48.836;9.174;2024-03-08T01:16:01;24.15;;;12.68;;
48743;SDS011;34538;48.836;9.174;2024-03-08T01:18:28;23.88;;;12.95;;
48743;SDS011;34538;48.836;9.174;2024-03-08T01:20:55;22.25;;;12.05;;
48743;SDS011;34538;48.836;9.174;2024-03-08T01:23:23;23.38;;;12.63;;
48743;SDS011;34538;48.836;9.174;2024-03-08T01:25:50;25.02;;;12.57;;
48743;SDS011;34538;48.836;9.174;2024-03-08T01:28:22;21.38;;;12.15;;
48743;SDS011;34538;48.836;9.174;2024-03-08T01:30:49;27.63;;;13.18;;
48743;SDS011;34538;48.836;9.174;2024-03-08T01:35:48;25.85;;;12.18;;
48743;SDS011;34538;48.836;9.174;2024-03-08T01:38:14;22.40;;;12.68;;
48743;SDS011;34538;48.836;9.174;2024-03-08T01:40:43;24.67;;;13.00;;
48743;SDS011;34538;48.836;9.174;2024-03-08T01:43:17;23.05;;;11.65;;
48743;SDS011;34538;48.836;9.174;2024-03-08T01:45:45;24.13;;;13.38;;
48743;SDS011;34538;48.836;9.174;2024-03-08T01:48:12;23.67;;;11.65;;
48743;SDS011;34538;48.836;9.174;2024-03-08T01:50:40;25.40;;;12.05;;
48743;SDS011;34538;48.836;9.174;2024-03-08T01:53:07;27.13;;;12.82;;
48743;SDS011;34538;48.836;9.174;2024-03-08T01:55:37;25.23;;;12.80;;
48743;SDS011;34538;48.836;9.174;2024-03-08T01:58:05;23.27;;;12.18;;
48743;SDS011;34538;48.836;9.174;2024-03-08T02:00:35;23.15;;;12.00;;
48743;SDS011;34538;48.836;9.174;2024-03-08T02:03:06;26.25;;;13.10;;
48743;SDS011;34538;48.836;9.174;2024-03-08T02:05:33;25.17;;;11.95;;
48743;SDS011;34538;48.836;9.174;2024-03-08T02:08:00;21.20;;;11.82;;
48743;SDS011;34538;48.836;9.174;2024-03-08T02:10:28;25.67;;;11.88;;
48743;SDS011;34538;48.836;9.174;2024-03-08T02:12:55;25.30;;;12.80;;
48743;SDS011;34538;48.836;9.174;2024-03-08T02:15:24;21.17;;;12.00;;
48743;SDS011;34538;48.836;9.174;2024-03-08T02:17:51;23.50;;;11.68;;
48743;SDS011;34538;48.836;9.174;2024-03-08T02:20:19;24.10;;;11.93;;
48743;SDS011;34538;48.836;9.174;2024-03-08T02:22:47;22.20;;;11.93;;
48743;SDS011;34538;48.836;9.174;2024-03-08T02:25:16;13.80;;;8.18;;
48743;SDS011;34538;48.836;9.174;2024-03-08T02:27:44;23.33;;;12.25;;
48743;SDS011;34538;48.836;9.174;2024-03-08T02:30:11;22.45;;;11.38;;
48743;SDS011;34538;48.836;9.174;2024-03-08T02:32:39;23.02;;;12.15;;
48743;SDS011;34538;48.836;9.174;2024-03-08T02:35:06;20.75;;;11.15;;
48743;SDS011;34538;48.836;9.174;2024-03-08T02:37:33;19.83;;;11.20;;
48743;SDS011;34538;48.836;9.174;2024-03-08T02:40:01;20.83;;;11.10;;
48743;SDS011;34538;48.836;9.174;2024-03-08T02:42:28;21.58;;;11.27;;
48743;SDS011;34538;48.836;9.174;2024-03-08T02:44:56;21.85;;;10.55;;
48743;SDS011;34538;48.836;9.174;2024-03-08T02:47:23;22.95;;;12.25;;
48743;SDS011;34538;48.836;9.174;2024-03-08T02:49:51;21.90;;;11.00;;
48743;SDS011;34538;48.836;9.174;2024-03-08T02:52:18;23.33;;;11.10;;
48743;SDS011;34538;48.836;9.174;2024-03-08T02:54:46;21.55;;;11.02;;
48743;SDS011;34538;48.836;9.174;2024-03-08T02:57:16;22.15;;;10.27;;
48743;SDS011;34538;48.836;9.174;2024-03-08T02:59:43;22.83;;;11.85;;
48743;SDS011;34538;48.836;9.174;2024-03-08T03:02:11;20.55;;;10.77;;
48743;SDS011;34538;48.836;9.174;2024-03-08T03:04:39;25.20;;;11.52;;
48743;SDS011;34538;48.836;9.174;2024-03-08T03:07:06;21.33;;;10.50;;
48743;SDS011;34538;48.836;9.174;2024-03-08T03:09:33;20.90;;;11.27;;
48743;SDS011;34538;48.836;9.174;2024-03-08T03:12:00;21.30;;;10.90;;
48743;SDS011;34538;48.836;9.174;2024-03-08T03:14:29;19.45;;;10.40;;
48743;SDS011;34538;48.836;9.174;2024-03-08T03:16:56;17.50;;;10.13;;
48743;SDS011;34538;48.836;9.174;2024-03-08T03:19:23;18.45;;;10.32;;
48743;SDS011;34538;48.836;9.174;2024-03-08T03:21:50;22.05;;;10.48;;
48743;SDS011;34538;48.836;9.174;2024-03-08T03:24:18;21.70;;;11.20;;
48743;SDS011;34538;48.836;9.174;2024-03-08T03:26:46;20.63;;;9.85;;
48743;SDS011;34538;48.836;9.174;2024-03-08T03:29:15;22.15;;;10.73;;
48743;SDS011;34538;48.836;9.174;2024-03-08T03:31:43;20.67;;;10.77;;
48743;SDS011;34538;48.836;9.174;2024-03-08T03:34:11;20.20;;;10.38;;
48743;SDS011;34538;48.836;9.174;2024-03-08T03:36:38;19.52;;;10.45;;
48743;SDS011;34538;48.836;9.174;2024-03-08T03:39:08;18.52;;;9.75;;
48743;SDS011;34538;48.836;9.174;2024-03-08T03:41:38;21.48;;;10.10;;
48743;SDS011;34538;48.836;9.174;2024-03-08T03:44:05;22.05;;;10.27;;
48743;SDS011;34538;48.836;9.174;2024-03-08T03:46:32;22.70;;;11.00;;
48743;SDS011;34538;48.836;9.174;2024-03-08T03:49:00;21.70;;;10.75;;
48743;SDS011;34538;48.836;9.174;2024-03-08T03:51:29;19.67;;;10.43;;
48743;SDS011;34538;48.836;9.174;2024-03-08T03:53:56;22.20;;;10.93;;
48743;SDS011;34538;48.836;9.174;2024-03-08T03:56:24;20.02;;;10.32;;
48743;SDS011;34538;48.836;9.174;2024-03-08T03:58:52;21.67;;;10.52;;
48743;SDS011;34538;48.836;9.174;2024-03-08T04:01:18;23.63;;;11.55;;
48743;SDS011;34538;48.836;9.174;2024-03-08T04:03:46;20.33;;;10.68;;
48743;SDS011;34538;48.836;9.174;2024-03-08T04:06:15;21.85;;;11.00;;
48743;SDS011;34538;48.836;9.174;2024-03-08T04:08:42;18.40;;;10.20;;
48743;SDS011;34538;48.836;9.174;2024-03-08T04:11:09;20.05;;;10.10;;
48743;SDS011;34538;48.836;9.174;2024-03-08T04:13:35;25.52;;;10.15;;
48743;SDS011;34538;48.836;9.174;2024-03-08T04:16:03;20.00;;;10.20;;
48743;SDS011;34538;48.836;9.174;2024-03-08T04:18:33;19.42;;;10.02;;
48743;SDS011;34538;48.836;9.174;2024-03-08T04:21:03;23.88;;;11.45;;
48743;SDS011;34538;48.836;9.174;2024-03-08T04:23:34;21.30;;;10.13;;
48743;SDS011;34538;48.836;9.174;2024-03-08T04:26:01;22.40;;;10.82;;
48743;SDS011;34538;48.836;9.174;2024-03-08T04:28:29;21.15;;;10.45;;
48743;SDS011;34538;48.836;9.174;2024-03-08T04:30:57;19.55;;;10.10;;
48743;SDS011;34538;48.836;9.174;2024-03-08T04:33:26;19.38;;;10.35;;
48743;SDS011;34538;48.836;9.174;2024-03-08T04:35:53;22.60;;;10.75;;
48743;SDS011;34538;48.836;9.174;2024-03-08T04:38:20;23.40;;;11.15;;
48743;SDS011;34538;48.836;9.174;2024-03-08T04:40:48;20.88;;;10.73;;
48743;SDS011;34538;48.836;9.174;2024-03-08T04:43:16;24.27;;;10.75;;
48743;SDS011;34538;48.836;9.174;2024-03-08T04:45:44;20.40;;;10.15;;
48743;SDS011;34538;48.836;9.174;2024-03-08T04:48:10;19.67;;;9.90;;
48743;SDS011;34538;48.836;9.174;2024-03-08T04:50:37;20.92;;;10.95;;
48743;SDS011;34538;48.836;9.174;2024-03-08T04:53:05;21.80;;;11.25;;
48743;SDS011;34538;48.836;9.174;2024-03-08T04:55:33;21.95;;;11.18;;
48743;SDS011;34538;48.836;9.174;2024-03-08T04:58:01;21.92;;;11.45;;
48743;SDS011;34538;48.836;9.174;2024-03-08T05:00:29;21.80;;;10.77;;
48743;SDS011;34538;48.836;9.174;2024-03-08T05:02:56;21.75;;;11.15;;
48743;SDS011;34538;48.836;9.174;2024-03-08T05:05:23;22.85;;;11.70;;
48743;SDS011;34538;48.836;9.174;2024-03-08T05:07:51;22.92;;;11.95;;
48743;SDS011;34538;48.836;9.174;2024-03-08T05:10:18;29.80;;;12.38;;
48743;SDS011;34538;48.836;9.174;2024-03-08T05:12:45;22.50;;;11.23;;
48743;SDS011;34538;48.836;9.174;2024-03-08T05:15:13;23.25;;;11.85;;
48743;SDS011;34538;48.836;9.174;2024-03-08T05:17:40;21.30;;;10.85;;
48743;SDS011;34538;48.836;9.174;2024-03-08T05:20:07;21.35;;;11.57;;
48743;SDS011;34538;48.836;9.174;2024-03-08T05:22:37;22.40;;;11.65;;
48743;SDS011;34538;48.836;9.174;2024-03-08T05:25:05;23.42;;;11.63;;
48743;SDS011;34538;48.836;9.174;2024-03-08T05:27:34;24.13;;;11.63;;
48743;SDS011;34538;48.836;9.174;2024-03-08T05:30:01;24.27;;;12.23;;
48743;SDS011;34538;48.836;9.174;2024-03-08T05:32:30;22.23;;;11.38;;
48743;SDS011;34538;48.836;9.174;2024-03-08T05:34:57;25.92;;;11.98;;
48743;SDS011;34538;48.836;9.174;2024-03-08T05:37:24;23.80;;;12.55;;
48743;SDS011;34538;48.836;9.174;2024-03-08T05:39:51;23.38;;;11.20;;
48743;SDS011;34538;48.836;9.174;2024-03-08T05:42:19;22.25;;;11.93;;
48743;SDS011;34538;48.836;9.174;2024-03-08T05:44:46;25.17;;;12.68;;
48743;SDS011;34538;48.836;9.174;2024-03-08T05:47:12;25.90;;;12.35;;
48743;SDS011;34538;48.836;9.174;2024-03-08T05:49:41;24.98;;;12.57;;
48743;SDS011;34538;48.836;9.174;2024-03-08T05:52:09;21.70;;;12.00;;
48743;SDS011;34538;48.836;9.174;2024-03-08T05:54:36;24.10;;;12.25;;
48743;SDS011;34538;48.836;9.174;2024-03-08T05:57:03;26.73;;;12.80;;
48743;SDS011;34538;48.836;9.174;2024-03-08T05:59:31;23.48;;;13.10;;
48743;SDS011;34538;48.836;9.174;2024-03-08T06:01:58;27.15;;;12.98;;
48743;SDS011;34538;48.836;9.174;2024-03-08T06:04:25;24.50;;;12.82;;
48743;SDS011;34538;48.836;9.174;2024-03-08T06:06:54;22.85;;;12.43;;
48743;SDS011;34538;48.836;9.174;2024-03-08T06:09:22;26.20;;;12.80;;
48743;SDS011;34538;48.836;9.174;2024-03-08T06:11:50;25.00;;;12.65;;
48743;SDS011;34538;48.836;9.174;2024-03-08T06:14:17;22.10;;;11.65;;
48743;SDS011;34538;48.836;9.174;2024-03-08T06:16:44;25.73;;;13.00;;
48743;SDS011;34538;48.836;9.174;2024-03-08T06:19:12;25.88;;;12.30;;
48743;SDS011;34538;48.836;9.174;2024-03-08T06:21:39;21.30;;;11.38;;
48743;SDS011;34538;48.836;9.174;2024-03-08T06:24:07;25.25;;;12.48;;
48743;SDS011;34538;48.836;9.174;2024-03-08T06:26:34;22.10;;;12.85;;
48743;SDS011;34538;48.836;9.174;2024-03-08T06:29:02;25.50;;;12.77;;
48743;SDS011;34538;48.836;9.174;2024-03-08T06:31:31;24.35;;;11.88;;
48743;SDS011;34538;48.836;9.174;2024-03-08T06:33:58;27.77;;;12.93;;
48743;SDS011;34538;48.836;9.174;2024-03-08T06:36:25;26.05;;;12.63;;
48743;SDS011;34538;48.836;9.174;2024-03-08T06:38:53;22.23;;;12.35;;
48743;SDS011;34538;48.836;9.174;2024-03-08T06:41:22;24.77;;;13.48;;
48743;SDS011;34538;48.836;9.174;2024-03-08T06:43:49;23.73;;;12.30;;
48743;SDS011;34538;48.836;9.174;2024-03-08T06:46:16;29.77;;;13.95;;
48743;SDS011;34538;48.836;9.174;2024-03-08T06:48:45;25.60;;;13.85;;
48743;SDS011;34538;48.836;9.174;2024-03-08T06:51:12;29.25;;;14.27;;
48743;SDS011;34538;48.836;9.174;2024-03-08T06:53:39;25.10;;;13.48;;
48743;SDS011;34538;48.836;9.174;2024-03-08T06:56:06;25.30;;;13.45;;
48743;SDS011;34538;48.836;9.174;2024-03-08T06:58:34;24.55;;;12.88;;
48743;SDS011;34538;48.836;9.174;2024-03-08T07:01:01;24.10;;;12.55;;
48743;SDS011;34538;48.836;9.174;2024-03-08T07:03:29;22.45;;;11.50;;
48743;SDS011;34538;48.836;9.174;2024-03-08T07:05:57;24.73;;;12.73;;
48743;SDS011;34538;48.836;9.174;2024-03-08T07:08:24;21.98;;;12.32;;
48743;SDS011;34538;48.836;9.174;2024-03-08T07:10:52;22.20;;;11.75;;
48743;SDS011;34538;48.836;9.174;2024-03-08T07:13:19;21.73;;;11.50;;
48743;SDS011;34538;48.836;9.174;2024-03-08T07:15:48;21.35;;;12.10;;
48743;SDS011;34538;48.836;9.174;2024-03-08T07:18:14;21.33;;;12.43;;
48743;SDS011;34538;48.836;9.174;2024-03-08T07:20:41;24.33;;;12.27;;
48743;SDS011;34538;48.836;9.174;2024-03-08T07:23:08;21.08;;;11.05;;
48743;SDS011;34538;48.836;9.174;2024-03-08T07:25:35;21.77;;;12.07;;
48743;SDS011;34538;48.836;9.174;2024-03-08T07:28:04;19.75;;;10.75;;
48743;SDS011;34538;48.836;9.174;2024-03-08T07:30:31;22.08;;;11.00;;
48743;SDS011;34538;48.836;9.174;2024-03-08T07:33:17;22.02;;;11.73;;
48743;SDS011;34538;48.836;9.174;2024-03-08T07:35:44;23.77;;;10.95;;
48743;SDS011;34538;48.836;9.174;2024-03-08T07:38:12;20.42;;;11.05;;
48743;SDS011;34538;48.836;9.174;2024-03-08T07:40:40;19.02;;;11.30;;
48743;SDS011;34538;48.836;9.174;2024-03-08T07:43:09;22.45;;;11.25;;
48743;SDS011;34538;48.836;9.174;2024-03-08T07:45:37;21.52;;;11.55;;
48743;SDS011;34538;48.836;9.174;2024-03-08T07:48:04;21.25;;;11.35;;
48743;SDS011;34538;48.836;9.174;2024-03-08T07:50:36;20.25;;;11.00;;
48743;SDS011;34538;48.836;9.174;2024-03-08T07:53:03;19.48;;;10.65;;
48743;SDS011;34538;48.836;9.174;2024-03-08T07:55:31;20.45;;;11.48;;
48743;SDS011;34538;48.836;9.174;2024-03-08T07:57:58;20.80;;;11.07;;
48743;SDS011;34538;48.836;9.174;2024-03-08T08:00:25;23.02;;;11.15;;
48743;SDS011;34538;48.836;9.174;2024-03-08T08:02:52;21.38;;;12.10;;
48743;SDS011;34538;48.836;9.174;2024-03-08T08:05:19;20.27;;;11.52;;
48743;SDS011;34538;48.836;9.174;2024-03-08T08:07:47;19.25;;;11.43;;
48743;SDS011;34538;48.836;9.174;2024-03-08T08:10:15;19.70;;;11.10;;
48743;SDS011;34538;48.836;9.174;2024-03-08T08:12:44;23.38;;;10.98;;
48743;SDS011;34538;48.836;9.174;2024-03-08T08:15:11;20.88;;;11.25;;
48743;SDS011;34538;48.836;9.174;2024-03-08T08:17:40;20.90;;;10.73;;
48743;SDS011;34538;48.836;9.174;2024-03-08T08:20:07;20.40;;;11.15;;
48743;SDS011;34538;48.836;9.174;2024-03-08T08:22:36;19.75;;;11.20;;
48743;SDS011;34538;48.836;9.174;2024-03-08T08:25:06;20.85;;;11.52;;
48743;SDS011;34538;48.836;9.174;2024-03-08T08:27:33;21.45;;;12.65;;
48743;SDS011;34538;48.836;9.174;2024-03-08T08:30:01;23.80;;;11.85;;
48743;SDS011;34538;48.836;9.174;2024-03-08T08:32:33;18.58;;;10.93;;
48743;SDS011;34538;48.836;9.174;2024-03-08T08:35:00;22.77;;;12.18;;
48743;SDS011;34538;48.836;9.174;2024-03-08T08:37:27;21.65;;;10.80;;
48743;SDS011;34538;48.836;9.174;2024-03-08T08:39:55;20.58;;;11.27;;
48743;SDS011;34538;48.836;9.174;2024-03-08T08:42:24;20.98;;;11.52;;
48743;SDS011;34538;48.836;9.174;2024-03-08T08:44:53;21.85;;;12.00;;
48743;SDS011;34538;48.836;9.174;2024-03-08T08:47:23;19.75;;;10.77;;
48743;SDS011;34538;48.836;9.174;2024-03-08T08:49:49;21.33;;;11.38;;
48743;SDS011;34538;48.836;9.174;2024-03-08T08:52:16;21.10;;;11.48;;
48743;SDS011;34538;48.836;9.174;2024-03-08T08:54:44;19.52;;;10.57;;
48743;SDS011;34538;48.836;9.174;2024-03-08T08:57:10;21.33;;;10.88;;
48743;SDS011;34538;48.836;9.174;2024-03-08T08:59:40;21.77;;;11.93;;
48743;SDS011;34538;48.836;9.174;2024-03-08T09:02:07;20.80;;;11.00;;
48743;SDS011;34538;48.836;9.174;2024-03-08T09:04:34;19.40;;;10.07;;
48743;SDS011;34538;48.836;9.174;2024-03-08T09:07:01;18.88;;;10.18;;
48743;SDS011;34538;48.836;9.174;2024-03-08T09:09:31;21.48;;;10.95;;
48743;SDS011;34538;48.836;9.174;2024-03-08T09:11:58;18.00;;;10.30;;
48743;SDS011;34538;48.836;9.174;2024-03-08T09:14:26;21.75;;;10.95;;
48743;SDS011;34538;48.836;9.174;2024-03-08T09:16:54;20.33;;;10.68;;
48743;SDS011;34538;48.836;9.174;2024-03-08T09:19:21;18.92;;;10.70;;
48743;SDS011;34538;48.836;9.174;2024-03-08T09:21:51;18.02;;;10.82;;
48743;SDS011;34538;48.836;9.174;2024-03-08T09:24:18;18.60;;;10.60;;
48743;SDS011;34538;48.836;9.174;2024-03-08T09:26:45;19.02;;;11.02;;
48743;SDS011;34538;48.836;9.174;2024-03-08T09:29:12;18.80;;;10.80;;
48743;SDS011;34538;48.836;9.174;2024-03-08T09:31:39;17.42;;;10.15;;
48743;SDS011;34538;48.836;9.174;2024-03-08T09:34:07;17.58;;;10.25;;
48743;SDS011;34538;48.836;9.174;2024-03-08T09:36:34;18.52;;;10.13;;
48743;SDS011;34538;48.836;9.174;2024-03-08T09:39:02;19.15;;;11.18;;
48743;SDS011;34538;48.836;9.174;2024-03-08T09:41:32;21.23;;;10.27;;
48743;SDS011;34538;48.836;9.174;2024-03-08T09:43:59;21.13;;;10.63;;
48743;SDS011;34538;48.836;9.174;2024-03-08T09:46:26;21.70;;;10.60;;
48743;SDS011;34538;48.836;9.174;2024-03-08T09:48:53;19.92;;;10.40;;
48743;SDS011;34538;48.836;9.174;2024-03-08T09:51:23;19.65;;;10.60;;
48743;SDS011;34538;48.836;9.174;2024-03-08T09:53:54;18.65;;;10.50;;
48743;SDS011;34538;48.836;9.174;2024-03-08T09:56:21;20.60;;;11.15;;
48743;SDS011;34538;48.836;9.174;2024-03-08T09:58:49;18.85;;;11.00;;
48743;SDS011;34538;48.836;9.174;2024-03-08T10:01:40;19.85;;;11.50;;
48743;SDS011;34538;48.836;9.174;2024-03-08T10:04:07;19.48;;;11.02;;
48743;SDS011;34538;48.836;9.174;2024-03-08T10:06:36;18.50;;;11.05;;
48743;SDS011;34538;48.836;9.174;2024-03-08T10:09:03;22.15;;;11.05;;
48743;SDS011;34538;48.836;9.174;2024-03-08T10:11:32;19.88;;;10.25;;
48743;SDS011;34538;48.836;9.174;2024-03-08T10:14:00;19.27;;;10.20;;
48743;SDS011;34538;48.836;9.174;2024-03-08T10:16:27;16.67;;;9.18;;
48743;SDS011;34538;48.836;9.174;2024-03-08T10:18:55;19.33;;;11.15;;
48743;SDS011;34538;48.836;9.174;2024-03-08T10:21:23;21.30;;;10.85;;
48743;SDS011;34538;48.836;9.174;2024-03-08T10:23:52;17.52;;;10.32;;
48743;SDS011;34538;48.836;9.174;2024-03-08T10:26:19;16.40;;;9.52;;
48743;SDS011;34538;48.836;9.174;2024-03-08T10:28:47;23.25;;;10.50;;
48743;SDS011;34538;48.836;9.174;2024-03-08T10:31:15;17.08;;;9.73;;
48743;SDS011;34538;48.836;9.174;2024-03-08T10:33:42;20.23;;;10.75;;
48743;SDS011;34538;48.836;9.174;2024-03-08T10:36:09;17.02;;;9.55;;
48743;SDS011;34538;48.836;9.174;2024-03-08T10:38:38;18.92;;;10.13;;
48743;SDS011;34538;48.836;9.174;2024-03-08T10:41:08;17.02;;;9.57;;
48743;SDS011;34538;48.836;9.174;2024-03-08T10:43:38;19.88;;;9.70;;
48743;SDS011;34538;48.836;9.174;2024-03-08T10:46:21;19.17;;;10.77;;
48743;SDS011;34538;48.836;9.174;2024-03-08T10:48:57;18.20;;;9.93;;
48743;SDS011;34538;48.836;9.174;2024-03-08T10:51:28;19.67;;;10.98;;
48743;SDS011;34538;48.836;9.174;2024-03-08T10:53:56;18.15;;;10.02;;
48743;SDS011;34538;48.836;9.174;2024-03-08T10:56:25;21.35;;;10.40;;
48743;SDS011;34538;48.836;9.174;2024-03-08T10:58:53;19.45;;;10.70;;
48743;SDS011;34538;48.836;9.174;2024-03-08T11:01:21;17.42;;;10.27;;
48743;SDS011;34538;48.836;9.174;2024-03-08T11:03:49;18.67;;;10.43;;
48743;SDS011;34538;48.836;9.174;2024-03-08T11:06:19;19.55;;;10.32;;
48743;SDS011;34538;48.836;9.174;2024-03-08T11:08:48;19.40;;;9.98;;
48743;SDS011;34538;48.836;9.174;2024-03-08T11:11:23;17.73;;;9.73;;
48743;SDS011;34538;48.836;9.174;2024-03-08T11:13:56;17.75;;;9.38;;
48743;SDS011;34538;48.836;9.174;2024-03-08T11:16:37;19.08;;;10.45;;
48743;SDS011;34538;48.836;9.174;2024-03-08T11:19:24;18.05;;;9.57;;
48743;SDS011;34538;48.836;9.174;2024-03-08T11:21:57;18.70;;;11.00;;
48743;SDS011;34538;48.836;9.174;2024-03-08T11:26:55;20.15;;;9.88;;
48743;SDS011;34538;48.836;9.174;2024-03-08T11:29:34;19.13;;;10.32;;
48743;SDS011;34538;48.836;9.174;2024-03-08T11:32:08;20.95;;;10.40;;
48743;SDS011;34538;48.836;9.174;2024-03-08T11:34:37;18.10;;;9.88;;
48743;SDS011;34538;48.836;9.174;2024-03-08T11:37:05;17.67;;;10.15;;
48743;SDS011;34538;48.836;9.174;2024-03-08T11:39:37;17.23;;;9.98;;
48743;SDS011;34538;48.836;9.174;2024-03-08T11:42:06;20.27;;;10.95;;
48743;SDS011;34538;48.836;9.174;2024-03-08T11:44:35;21.35;;;10.55;;
48743;SDS011;34538;48.836;9.174;2024-03-08T11:47:02;18.17;;;10.20;;
48743;SDS011;34538;48.836;9.174;2024-03-08T11:49:34;18.50;;;10.35;;
48743;SDS011;34538;48.836;9.174;2024-03-08T11:52:01;19.85;;;11.00;;
48743;SDS011;34538;48.836;9.174;2024-03-08T11:54:29;18.98;;;11.00;;
48743;SDS011;34538;48.836;9.174;2024-03-08T11:56:56;20.58;;;10.70;;
48743;SDS011;34538;48.836;9.174;2024-03-08T11:59:27;21.20;;;10.52;;
48743;SDS011;34538;48.836;9.174;2024-03-08T12:02:01;20.05;;;10.60;;
48743;SDS011;34538;48.836;9.174;2024-03-08T12:04:29;18.58;;;11.18;;
48743;SDS011;34538;48.836;9.174;2024-03-08T12:06:58;20.85;;;10.82;;
48743;SDS011;34538;48.836;9.174;2024-03-08T12:09:26;19.85;;;11.00;;
48743;SDS011;34538;48.836;9.174;2024-03-08T12:11:53;24.40;;;12.15;;
48743;SDS011;34538;48.836;9.174;2024-03-08T12:14:20;19.85;;;11.43;;
48743;SDS011;34538;48.836;9.174;2024-03-08T12:16:48;24.80;;;11.90;;
48743;SDS011;34538;48.836;9.174;2024-03-08T12:19:17;21.65;;;11.15;;
48743;SDS011;34538;48.836;9.174;2024-03-08T12:21:45;20.38;;;11.43;;
48743;SDS011;34538;48.836;9.174;2024-03-08T12:24:14;23.67;;;11.07;;
48743;SDS011;34538;48.836;9.174;2024-03-08T12:26:44;19.92;;;10.73;;
48743;SDS011;34538;48.836;9.174;2024-03-08T12:29:22;21.55;;;10.73;;
48743;SDS011;34538;48.836;9.174;2024-03-08T12:31:54;19.75;;;10.80;;
48743;SDS011;34538;48.836;9.174;2024-03-08T12:34:23;20.52;;;11.30;;
48743;SDS011;34538;48.836;9.174;2024-03-08T12:36:52;18.45;;;10.68;;
48743;SDS011;34538;48.836;9.174;2024-03-08T12:39:19;22.83;;;10.50;;
48743;SDS011;34538;48.836;9.174;2024-03-08T12:41:51;22.35;;;10.85;;
48743;SDS011;34538;48.836;9.174;2024-03-08T12:44:19;21.75;;;11.10;;
48743;SDS011;34538;48.836;9.174;2024-03-08T12:46:47;19.70;;;10.43;;
48743;SDS011;34538;48.836;9.174;2024-03-08T12:49:15;19.10;;;10.60;;
48743;SDS011;34538;48.836;9.174;2024-03-08T12:51:43;20.88;;;10.43;;
48743;SDS011;34538;48.836;9.174;2024-03-08T12:54:10;19.35;;;10.18;;
48743;SDS011;34538;48.836;9.174;2024-03-08T12:56:37;21.30;;;11.27;;
48743;SDS011;34538;48.836;9.174;2024-03-08T12:59:05;21.67;;;10.90;;
48743;SDS011;34538;48.836;9.174;2024-03-08T13:01:33;19.42;;;10.27;;
48743;SDS011;34538;48.836;9.174;2024-03-08T13:04:03;20.00;;;11.15;;
48743;SDS011;34538;48.836;9.174;2024-03-08T13:06:32;19.73;;;10.50;;
48743;SDS011;34538;48.836;9.174;2024-03-08T13:08:59;21.17;;;11.05;;
48743;SDS011;34538;48.836;9.174;2024-03-08T13:11:30;17.15;;;9.80;;
48743;SDS011;34538;48.836;9.174;2024-03-08T13:14:01;22.08;;;10.35;;
48743;SDS011;34538;48.836;9.174;2024-03-08T13:16:30;18.70;;;10.07;;
48743;SDS011;34538;48.836;9.174;2024-03-08T13:18:57;18.67;;;10.27;;
48743;SDS011;34538;48.836;9.174;2024-03-08T13:21:24;19.88;;;9.73;;
48743;SDS011;34538;48.836;9.174;2024-03-08T13:23:52;17.27;;;10.07;;
48743;SDS011;34538;48.836;9.174;2024-03-08T13:26:20;19.65;;;10.68;;
48743;SDS011;34538;48.836;9.174;2024-03-08T13:28:47;20.63;;;11.57;;
48743;SDS011;34538;48.836;9.174;2024-03-08T13:33:45;20.67;;;11.18;;
48743;SDS011;34538;48.836;9.174;2024-03-08T13:36:13;19.42;;;10.30;;
48743;SDS011;34538;48.836;9.174;2024-03-08T13:38:41;18.30;;;10.57;;
48743;SDS011;34538;48.836;9.174;2024-03-08T13:41:10;21.42;;;10.70;;
48743;SDS011;34538;48.836;9.174;2024-03-08T13:43:40;19.38;;;10.80;;
48743;SDS011;34538;48.836;9.174;2024-03-08T13:46:07;16.98;;;10.23;;
48743;SDS011;34538;48.836;9.174;2024-03-08T13:48:35;19.70;;;10.68;;
48743;SDS011;34538;48.836;9.174;2024-03-08T13:51:03;23.33;;;10.35;;
48743;SDS011;34538;48.836;9.174;2024-03-08T13:53:31;21.35;;;10.50;;
48743;SDS011;34538;48.836;9.174;2024-03-08T13:56:00;17.27;;;9.90;;
48743;SDS011;34538;48.836;9.174;2024-03-08T13:58:28;18.70;;;10.70;;
48743;SDS011;34538;48.836;9.174;2024-03-08T14:00:55;21.23;;;10.80;;
48743;SDS011;34538;48.836;9.174;2024-03-08T14:03:22;20.63;;;10.63;;
48743;SDS011;34538;48.836;9.174;2024-03-08T14:05:49;19.67;;;10.30;;
48743;SDS011;34538;48.836;9.174;2024-03-08T14:08:16;20.70;;;10.10;;
48743;SDS011;34538;48.836;9.174;2024-03-08T14:10:44;18.92;;;9.63;;
48743;SDS011;34538;48.836;9.174;2024-03-08T14:13:12;21.55;;;11.02;;
48743;SDS011;34538;48.836;9.174;2024-03-08T14:15:42;20.70;;;11.05;;
48743;SDS011;34538;48.836;9.174;2024-03-08T14:18:11;18.17;;;9.70;;
48743;SDS011;34538;48.836;9.174;2024-03-08T14:20:38;23.25;;;11.00;;
48743;SDS011;34538;48.836;9.174;2024-03-08T14:23:07;18.80;;;10.25;;
48743;SDS011;34538;48.836;9.174;2024-03-08T14:25:34;20.38;;;10.07;;
48743;SDS011;34538;48.836;9.174;2024-03-08T14:28:01;19.38;;;10.20;;
48743;SDS011;34538;48.836;9.174;2024-03-08T14:30:32;16.87;;;10.10;;
48743;SDS011;34538;48.836;9.174;2024-03-08T14:33:01;15.70;;;9.15;;
48743;SDS011;34538;48.836;9.174;2024-03-08T14:35:30;17.45;;;9.57;;
48743;SDS011;34538;48.836;9.174;2024-03-08T14:37:57;17.67;;;9.98;;